sensor_id;sensor_type;location;lat;lon;timestamp;pressure;altitude;pressure_sealevel;temperature;humidity
14393;BME280;7281;42.678;23.372;2023-02-19T00:01:27;95379.81;;;12.46;36.30
14393;BME280;7281;42.678;23.372;2023-02-19T00:03:56;95386.31;;;11.97;37.13
14393;BME280;7281;42.678;23.372;2023-02-19T00:06:25;95390.56;;;12.03;37.14
14393;BME280;7281;42.678;23.372;2023-02-19T00:08:52;95388.72;;;11.72;37.57
14393;BME280;7281;42.678;23.372;2023-02-19T00:11:21;95365.78;;;11.89;36.81
14393;BME280;7281;42.678;23.372;2023-02-19T00:13:51;95382.31;;;11.31;38.10
14393;BME280;7281;42.678;23.372;2023-02-19T00:16:23;95369.09;;;11.79;37.30
14393;BME280;7281;42.678;23.372;2023-02-19T00:18:52;95375.66;;;11.77;37.22
14393;BME280;7281;42.678;23.372;2023-02-19T00:21:19;95381.97;;;11.81;37.22
14393;BME280;7281;42.678;23.372;2023-02-19T00:23:54;95379.41;;;11.86;37.19
14393;BME280;7281;42.678;23.372;2023-02-19T00:26:21;95378.84;;;11.04;38.70
14393;BME280;7281;42.678;23.372;2023-02-19T00:28:49;95382.22;;;11.48;37.86
14393;BME280;7281;42.678;23.372;2023-02-19T00:31:26;95370.00;;;11.63;37.29
14393;BME280;7281;42.678;23.372;2023-02-19T00:33:59;95356.19;;;10.71;39.35
14393;BME280;7281;42.678;23.372;2023-02-19T00:36:27;95338.28;;;11.11;38.39
14393;BME280;7281;42.678;23.372;2023-02-19T00:38:54;95372.25;;;10.15;40.79
14393;BME280;7281;42.678;23.372;2023-02-19T00:41:22;95375.69;;;11.23;38.73
14393;BME280;7281;42.678;23.372;2023-02-19T00:43:55;95356.50;;;10.75;39.65
14393;BME280;7281;42.678;23.372;2023-02-19T00:46:27;95362.00;;;11.21;38.88
14393;BME280;7281;42.678;23.372;2023-02-19T00:48:55;95366.22;;;10.74;39.47
14393;BME280;7281;42.678;23.372;2023-02-19T00:51:25;95356.06;;;11.04;38.93
14393;BME280;7281;42.678;23.372;2023-02-19T00:53:52;95344.66;;;11.20;38.46
14393;BME280;7281;42.678;23.372;2023-02-19T00:56:20;95347.44;;;10.39;39.43
14393;BME280;7281;42.678;23.372;2023-02-19T00:58:47;95345.03;;;9.99;41.12
14393;BME280;7281;42.678;23.372;2023-02-19T01:01:15;95316.53;;;10.03;40.55
14393;BME280;7281;42.678;23.372;2023-02-19T01:03:43;95352.56;;;10.72;39.81
14393;BME280;7281;42.678;23.372;2023-02-19T01:06:12;95356.94;;;10.24;40.30
14393;BME280;7281;42.678;23.372;2023-02-19T01:08:39;95344.56;;;10.84;39.38
14393;BME280;7281;42.678;23.372;2023-02-19T01:11:07;95353.38;;;10.99;39.09
14393;BME280;7281;42.678;23.372;2023-02-19T01:13:35;95360.19;;;11.00;38.94
14393;BME280;7281;42.678;23.372;2023-02-19T01:16:22;95352.34;;;11.00;38.74
14393;BME280;7281;42.678;23.372;2023-02-19T01:18:50;95345.25;;;11.01;38.60
14393;BME280;7281;42.678;23.372;2023-02-19T01:21:20;95344.53;;;11.05;38.73
14393;BME280;7281;42.678;23.372;2023-02-19T01:23:48;95342.59;;;11.22;38.31
14393;BME280;7281;42.678;23.372;2023-02-19T01:26:18;95346.84;;;11.29;38.29
14393;BME280;7281;42.678;23.372;2023-02-19T01:28:45;95345.97;;;11.18;38.37
14393;BME280;7281;42.678;23.372;2023-02-19T01:31:15;95353.59;;;11.19;38.23
14393;BME280;7281;42.678;23.372;2023-02-19T01:33:47;95362.31;;;11.25;38.29
14393;BME280;7281;42.678;23.372;2023-02-19T01:36:14;95355.59;;;11.07;38.35
14393;BME280;7281;42.678;23.372;2023-02-19T01:38:42;95347.72;;;10.21;39.74
14393;BME280;7281;42.678;23.372;2023-02-19T01:41:12;95370.31;;;10.44;39.65
14393;BME280;7281;42.678;23.372;2023-02-19T01:43:59;95376.88;;;10.68;39.57
14393;BME280;7281;42.678;23.372;2023-02-19T01:46:31;95372.44;;;10.68;39.40
14393;BME280;7281;42.678;23.372;2023-02-19T01:49:24;95393.03;;;10.81;39.36
14393;BME280;7281;42.678;23.372;2023-02-19T01:54:25;95399.22;;;10.32;40.13
14393;BME280;7281;42.678;23.372;2023-02-19T01:56:54;95387.41;;;10.51;39.83
14393;BME280;7281;42.678;23.372;2023-02-19T01:59:23;95385.06;;;10.33;40.26
14393;BME280;7281;42.678;23.372;2023-02-19T02:01:51;95372.66;;;10.45;39.64
14393;BME280;7281;42.678;23.372;2023-02-19T02:04:18;95387.63;;;9.95;40.77
14393;BME280;7281;42.678;23.372;2023-02-19T02:06:54;95393.53;;;9.69;41.46
14393;BME280;7281;42.678;23.372;2023-02-19T02:09:26;95370.34;;;9.77;40.76
14393;BME280;7281;42.678;23.372;2023-02-19T02:12:12;95398.41;;;9.82;41.37
14393;BME280;7281;42.678;23.372;2023-02-19T02:14:42;95376.84;;;10.08;41.16
14393;BME280;7281;42.678;23.372;2023-02-19T02:20:01;95397.47;;;10.21;40.79
14393;BME280;7281;42.678;23.372;2023-02-19T02:27:42;95390.41;;;10.60;40.16
14393;BME280;7281;42.678;23.372;2023-02-19T02:32:55;95396.72;;;10.64;39.98
14393;BME280;7281;42.678;23.372;2023-02-19T02:35:37;95383.09;;;10.83;39.74
14393;BME280;7281;42.678;23.372;2023-02-19T02:38:07;95387.50;;;10.56;40.02
14393;BME280;7281;42.678;23.372;2023-02-19T02:40:36;95387.66;;;10.71;39.50
14393;BME280;7281;42.678;23.372;2023-02-19T02:43:07;95386.94;;;10.54;40.21
14393;BME280;7281;42.678;23.372;2023-02-19T02:45:34;95378.31;;;10.37;39.87
14393;BME280;7281;42.678;23.372;2023-02-19T02:48:23;95383.22;;;10.12;40.43
14393;BME280;7281;42.678;23.372;2023-02-19T02:50:58;95383.75;;;10.52;40.03
14393;BME280;7281;42.678;23.372;2023-02-19T02:53:40;95373.38;;;10.62;39.44
14393;BME280;7281;42.678;23.372;2023-02-19T02:56:29;95379.59;;;10.99;39.32
14393;BME280;7281;42.678;23.372;2023-02-19T02:58:58;95380.25;;;11.11;38.65
14393;BME280;7281;42.678;23.372;2023-02-19T03:01:31;95388.81;;;11.02;38.91
14393;BME280;7281;42.678;23.372;2023-02-19T03:06:54;95374.66;;;11.30;38.25
14393;BME280;7281;42.678;23.372;2023-02-19T03:09:27;95396.91;;;11.00;38.91
14393;BME280;7281;42.678;23.372;2023-02-19T03:12:01;95401.31;;;11.16;38.77
14393;BME280;7281;42.678;23.372;2023-02-19T03:14:51;95411.97;;;11.10;38.66
14393;BME280;7281;42.678;23.372;2023-02-19T03:17:43;95399.47;;;10.95;38.56
14393;BME280;7281;42.678;23.372;2023-02-19T03:20:34;95408.56;;;10.66;39.65
14393;BME280;7281;42.678;23.372;2023-02-19T03:23:06;95404.78;;;10.57;39.75
14393;BME280;7281;42.678;23.372;2023-02-19T03:25:36;95420.16;;;10.32;40.35
14393;BME280;7281;42.678;23.372;2023-02-19T03:28:37;95430.91;;;10.52;39.78
14393;BME280;7281;42.678;23.372;2023-02-19T03:31:26;95404.56;;;9.43;41.21
14393;BME280;7281;42.678;23.372;2023-02-19T03:34:04;95429.81;;;9.82;40.91
14393;BME280;7281;42.678;23.372;2023-02-19T03:36:49;95435.72;;;10.22;40.42
14393;BME280;7281;42.678;23.372;2023-02-19T03:39:21;95423.97;;;10.08;40.20
14393;BME280;7281;42.678;23.372;2023-02-19T03:42:00;95438.72;;;10.47;40.13
14393;BME280;7281;42.678;23.372;2023-02-19T03:47:19;95445.53;;;10.48;39.94
14393;BME280;7281;42.678;23.372;2023-02-19T03:58:04;95447.31;;;10.26;40.32
14393;BME280;7281;42.678;23.372;2023-02-19T04:03:27;95438.09;;;9.90;40.99
14393;BME280;7281;42.678;23.372;2023-02-19T04:06:02;95451.91;;;10.19;40.39
14393;BME280;7281;42.678;23.372;2023-02-19T04:08:33;95450.31;;;10.01;40.85
14393;BME280;7281;42.678;23.372;2023-02-19T04:11:04;95444.25;;;9.68;41.47
14393;BME280;7281;42.678;23.372;2023-02-19T04:13:42;95450.75;;;9.82;40.96
14393;BME280;7281;42.678;23.372;2023-02-19T04:16:15;95464.78;;;9.31;42.79
14393;BME280;7281;42.678;23.372;2023-02-19T04:18:46;95456.00;;;9.98;41.15
14393;BME280;7281;42.678;23.372;2023-02-19T04:21:14;95469.19;;;9.31;42.44
14393;BME280;7281;42.678;23.372;2023-02-19T04:23:43;95465.94;;;9.52;41.94
14393;BME280;7281;42.678;23.372;2023-02-19T04:26:12;95465.78;;;9.58;41.80
14393;BME280;7281;42.678;23.372;2023-02-19T04:28:40;95463.69;;;9.72;41.95
14393;BME280;7281;42.678;23.372;2023-02-19T04:31:09;95463.41;;;9.57;42.02
14393;BME280;7281;42.678;23.372;2023-02-19T04:33:37;95465.84;;;9.18;42.22
14393;BME280;7281;42.678;23.372;2023-02-19T04:36:05;95473.50;;;9.37;42.80
14393;BME280;7281;42.678;23.372;2023-02-19T04:38:33;95473.06;;;9.40;42.22
14393;BME280;7281;42.678;23.372;2023-02-19T04:40:59;95471.41;;;9.50;41.88
14393;BME280;7281;42.678;23.372;2023-02-19T04:43:26;95464.81;;;9.48;41.67
14393;BME280;7281;42.678;23.372;2023-02-19T04:45:53;95486.19;;;9.16;42.78
14393;BME280;7281;42.678;23.372;2023-02-19T04:48:20;95474.09;;;9.27;43.05
14393;BME280;7281;42.678;23.372;2023-02-19T04:50:47;95474.34;;;9.54;41.95
14393;BME280;7281;42.678;23.372;2023-02-19T04:53:14;95461.91;;;9.33;42.22
14393;BME280;7281;42.678;23.372;2023-02-19T04:55:40;95482.38;;;8.96;43.55
14393;BME280;7281;42.678;23.372;2023-02-19T04:58:07;95478.59;;;9.03;42.63
14393;BME280;7281;42.678;23.372;2023-02-19T05:00:34;95481.75;;;9.29;42.73
14393;BME280;7281;42.678;23.372;2023-02-19T05:03:01;95491.63;;;9.55;42.65
14393;BME280;7281;42.678;23.372;2023-02-19T05:05:28;95489.97;;;9.49;42.10
14393;BME280;7281;42.678;23.372;2023-02-19T05:07:55;95488.41;;;9.36;42.28
14393;BME280;7281;42.678;23.372;2023-02-19T05:10:21;95481.63;;;9.96;41.09
14393;BME280;7281;42.678;23.372;2023-02-19T05:12:48;95480.16;;;10.17;41.00
14393;BME280;7281;42.678;23.372;2023-02-19T05:15:15;95479.53;;;9.82;41.45
14393;BME280;7281;42.678;23.372;2023-02-19T05:17:42;95468.69;;;9.90;41.04
14393;BME280;7281;42.678;23.372;2023-02-19T05:20:09;95490.47;;;10.07;41.13
14393;BME280;7281;42.678;23.372;2023-02-19T05:22:41;95487.75;;;10.02;41.21
14393;BME280;7281;42.678;23.372;2023-02-19T05:25:08;95486.41;;;9.55;42.11
14393;BME280;7281;42.678;23.372;2023-02-19T05:27:36;95478.81;;;9.70;41.77
14393;BME280;7281;42.678;23.372;2023-02-19T05:30:03;95492.97;;;10.02;41.16
14393;BME280;7281;42.678;23.372;2023-02-19T05:32:30;95497.16;;;9.70;41.92
14393;BME280;7281;42.678;23.372;2023-02-19T05:34:57;95493.31;;;9.33;42.61
14393;BME280;7281;42.678;23.372;2023-02-19T05:37:24;95512.75;;;9.65;42.48
14393;BME280;7281;42.678;23.372;2023-02-19T05:39:51;95512.03;;;9.97;41.69
14393;BME280;7281;42.678;23.372;2023-02-19T05:42:17;95502.16;;;9.88;41.22
14393;BME280;7281;42.678;23.372;2023-02-19T05:44:44;95518.59;;;10.00;41.20
14393;BME280;7281;42.678;23.372;2023-02-19T05:47:11;95514.28;;;10.22;40.76
14393;BME280;7281;42.678;23.372;2023-02-19T05:49:38;95515.03;;;10.06;41.15
14393;BME280;7281;42.678;23.372;2023-02-19T05:52:05;95504.84;;;9.76;41.85
14393;BME280;7281;42.678;23.372;2023-02-19T05:54:32;95508.53;;;9.92;41.57
14393;BME280;7281;42.678;23.372;2023-02-19T05:56:59;95515.53;;;10.03;41.26
14393;BME280;7281;42.678;23.372;2023-02-19T05:59:26;95513.75;;;9.92;41.86
14393;BME280;7281;42.678;23.372;2023-02-19T06:01:54;95503.44;;;10.02;41.53
14393;BME280;7281;42.678;23.372;2023-02-19T06:04:21;95518.41;;;10.35;41.06
14393;BME280;7281;42.678;23.372;2023-02-19T06:06:49;95526.50;;;10.50;40.69
14393;BME280;7281;42.678;23.372;2023-02-19T06:09:16;95528.69;;;10.36;41.67
14393;BME280;7281;42.678;23.372;2023-02-19T06:11:43;95534.06;;;10.63;40.94
14393;BME280;7281;42.678;23.372;2023-02-19T06:14:13;95534.91;;;10.68;40.63
14393;BME280;7281;42.678;23.372;2023-02-19T06:16:41;95537.78;;;10.83;40.23
14393;BME280;7281;42.678;23.372;2023-02-19T06:19:07;95540.16;;;10.85;40.17
14393;BME280;7281;42.678;23.372;2023-02-19T06:21:34;95534.09;;;10.84;40.54
14393;BME280;7281;42.678;23.372;2023-02-19T06:24:06;95534.25;;;10.94;40.31
14393;BME280;7281;42.678;23.372;2023-02-19T06:26:33;95538.72;;;10.77;40.54
14393;BME280;7281;42.678;23.372;2023-02-19T06:29:00;95531.34;;;11.12;39.85
14393;BME280;7281;42.678;23.372;2023-02-19T06:31:27;95509.91;;;10.99;40.70
14393;BME280;7281;42.678;23.372;2023-02-19T06:33:54;95527.88;;;11.29;40.10
14393;BME280;7281;42.678;23.372;2023-02-19T06:36:22;95519.16;;;11.45;39.76
14393;BME280;7281;42.678;23.372;2023-02-19T06:38:49;95538.66;;;11.54;39.60
14393;BME280;7281;42.678;23.372;2023-02-19T06:41:16;95536.59;;;11.56;39.38
14393;BME280;7281;42.678;23.372;2023-02-19T06:43:43;95532.69;;;11.80;38.87
14393;BME280;7281;42.678;23.372;2023-02-19T06:46:12;95526.13;;;12.04;38.65
14393;BME280;7281;42.678;23.372;2023-02-19T06:48:40;95538.09;;;12.21;39.89
14393;BME280;7281;42.678;23.372;2023-02-19T06:51:10;95535.19;;;12.50;39.27
14393;BME280;7281;42.678;23.372;2023-02-19T06:53:38;95537.00;;;12.49;38.74
14393;BME280;7281;42.678;23.372;2023-02-19T06:56:20;95533.28;;;12.45;37.76
14393;BME280;7281;42.678;23.372;2023-02-19T06:58:48;95544.66;;;12.87;37.65
14393;BME280;7281;42.678;23.372;2023-02-19T07:01:14;95546.63;;;13.07;37.11
14393;BME280;7281;42.678;23.372;2023-02-19T07:03:41;95522.59;;;12.93;36.89
14393;BME280;7281;42.678;23.372;2023-02-19T07:06:08;95555.88;;;13.14;37.13
14393;BME280;7281;42.678;23.372;2023-02-19T07:08:35;95555.88;;;13.14;36.42
14393;BME280;7281;42.678;23.372;2023-02-19T07:11:02;95552.34;;;13.46;36.10
14393;BME280;7281;42.678;23.372;2023-02-19T07:13:29;95543.41;;;13.47;36.12
14393;BME280;7281;42.678;23.372;2023-02-19T07:15:58;95542.97;;;13.65;35.67
14393;BME280;7281;42.678;23.372;2023-02-19T07:18:26;95528.75;;;13.71;36.11
14393;BME280;7281;42.678;23.372;2023-02-19T07:20:53;95539.88;;;13.98;36.30
14393;BME280;7281;42.678;23.372;2023-02-19T07:23:20;95520.41;;;13.99;35.21
14393;BME280;7281;42.678;23.372;2023-02-19T07:25:47;95532.53;;;14.25;35.30
14393;BME280;7281;42.678;23.372;2023-02-19T07:28:13;95513.09;;;14.46;34.98
14393;BME280;7281;42.678;23.372;2023-02-19T07:30:43;95508.84;;;14.45;34.58
14393;BME280;7281;42.678;23.372;2023-02-19T07:33:09;95484.59;;;14.63;34.82
14393;BME280;7281;42.678;23.372;2023-02-19T07:35:36;95506.44;;;14.94;34.16
14393;BME280;7281;42.678;23.372;2023-02-19T07:38:03;95501.66;;;15.01;33.86
14393;BME280;7281;42.678;23.372;2023-02-19T07:40:31;95502.16;;;15.18;33.43
14393;BME280;7281;42.678;23.372;2023-02-19T07:42:58;95501.81;;;15.45;33.28
14393;BME280;7281;42.678;23.372;2023-02-19T07:45:26;95502.34;;;15.47;32.48
14393;BME280;7281;42.678;23.372;2023-02-19T07:47:52;95505.03;;;15.27;33.24
14393;BME280;7281;42.678;23.372;2023-02-19T07:50:19;95503.91;;;15.53;33.02
14393;BME280;7281;42.678;23.372;2023-02-19T07:52:46;95496.78;;;15.48;33.40
14393;BME280;7281;42.678;23.372;2023-02-19T07:55:13;95496.94;;;15.72;33.01
14393;BME280;7281;42.678;23.372;2023-02-19T07:57:39;95498.56;;;16.06;32.50
14393;BME280;7281;42.678;23.372;2023-02-19T08:00:06;95503.19;;;15.91;32.02
14393;BME280;7281;42.678;23.372;2023-02-19T08:02:37;95500.41;;;16.45;32.26
14393;BME280;7281;42.678;23.372;2023-02-19T08:05:23;95499.94;;;16.38;31.70
14393;BME280;7281;42.678;23.372;2023-02-19T08:07:49;95497.56;;;16.36;32.04
14393;BME280;7281;42.678;23.372;2023-02-19T08:10:16;95501.06;;;16.65;31.46
14393;BME280;7281;42.678;23.372;2023-02-19T08:13:02;95492.03;;;16.71;31.28
14393;BME280;7281;42.678;23.372;2023-02-19T08:18:40;95474.03;;;16.01;31.50
14393;BME280;7281;42.678;23.372;2023-02-19T08:21:07;95483.84;;;16.34;31.75
14393;BME280;7281;42.678;23.372;2023-02-19T08:23:35;95493.47;;;16.54;30.85
14393;BME280;7281;42.678;23.372;2023-02-19T08:26:02;95496.81;;;16.69;31.28
14393;BME280;7281;42.678;23.372;2023-02-19T08:28:29;95489.22;;;16.58;30.64
14393;BME280;7281;42.678;23.372;2023-02-19T08:31:06;95479.94;;;17.12;30.68
14393;BME280;7281;42.678;23.372;2023-02-19T08:33:34;95483.09;;;17.62;30.19
14393;BME280;7281;42.678;23.372;2023-02-19T08:36:04;95496.06;;;17.40;30.50
14393;BME280;7281;42.678;23.372;2023-02-19T08:38:33;95488.19;;;17.58;30.00
14393;BME280;7281;42.678;23.372;2023-02-19T08:41:10;95485.34;;;17.92;29.98
14393;BME280;7281;42.678;23.372;2023-02-19T08:43:40;95474.13;;;18.32;29.61
14393;BME280;7281;42.678;23.372;2023-02-19T08:46:09;95478.38;;;18.65;29.27
14393;BME280;7281;42.678;23.372;2023-02-19T08:48:38;95463.16;;;18.57;29.24
14393;BME280;7281;42.678;23.372;2023-02-19T08:51:07;95458.78;;;18.93;29.07
14393;BME280;7281;42.678;23.372;2023-02-19T08:53:37;95459.84;;;18.92;29.37
14393;BME280;7281;42.678;23.372;2023-02-19T08:56:06;95457.88;;;18.98;28.60
14393;BME280;7281;42.678;23.372;2023-02-19T08:58:33;95462.03;;;19.04;29.09
14393;BME280;7281;42.678;23.372;2023-02-19T09:00:59;95456.13;;;18.93;28.56
14393;BME280;7281;42.678;23.372;2023-02-19T09:03:26;95447.84;;;18.81;28.90
14393;BME280;7281;42.678;23.372;2023-02-19T09:05:53;95440.38;;;18.83;29.02
14393;BME280;7281;42.678;23.372;2023-02-19T09:08:20;95436.25;;;18.91;28.59
14393;BME280;7281;42.678;23.372;2023-02-19T09:10:59;95423.34;;;19.25;28.97
14393;BME280;7281;42.678;23.372;2023-02-19T09:13:27;95425.63;;;19.59;28.57
14393;BME280;7281;42.678;23.372;2023-02-19T09:15:55;95419.44;;;19.50;28.22
14393;BME280;7281;42.678;23.372;2023-02-19T09:18:23;95422.06;;;19.63;28.00
14393;BME280;7281;42.678;23.372;2023-02-19T09:20:50;95416.19;;;19.26;28.43
14393;BME280;7281;42.678;23.372;2023-02-19T09:23:17;95412.81;;;19.61;28.08
14393;BME280;7281;42.678;23.372;2023-02-19T09:25:44;95421.00;;;19.51;28.23
14393;BME280;7281;42.678;23.372;2023-02-19T09:28:11;95408.91;;;19.31;28.22
14393;BME280;7281;42.678;23.372;2023-02-19T09:30:38;95417.41;;;20.04;27.50
14393;BME280;7281;42.678;23.372;2023-02-19T09:33:05;95416.69;;;20.12;27.39
14393;BME280;7281;42.678;23.372;2023-02-19T09:35:32;95404.28;;;19.86;27.80
14393;BME280;7281;42.678;23.372;2023-02-19T09:37:59;95397.16;;;20.39;28.42
14393;BME280;7281;42.678;23.372;2023-02-19T09:40:28;95401.84;;;20.64;27.54
14393;BME280;7281;42.678;23.372;2023-02-19T09:42:56;95402.28;;;20.27;27.66
14393;BME280;7281;42.678;23.372;2023-02-19T09:45:24;95408.03;;;19.85;27.55
14393;BME280;7281;42.678;23.372;2023-02-19T09:47:53;95401.25;;;20.01;27.98
14393;BME280;7281;42.678;23.372;2023-02-19T09:50:33;95402.59;;;20.56;27.33
14393;BME280;7281;42.678;23.372;2023-02-19T09:53:06;95394.81;;;20.68;27.04
14393;BME280;7281;42.678;23.372;2023-02-19T09:55:41;95403.78;;;21.11;26.36
14393;BME280;7281;42.678;23.372;2023-02-19T09:58:22;95394.00;;;21.46;26.01
14393;BME280;7281;42.678;23.372;2023-02-19T10:00:54;95391.75;;;21.14;25.97
14393;BME280;7281;42.678;23.372;2023-02-19T10:03:29;95376.75;;;21.44;25.95
14393;BME280;7281;42.678;23.372;2023-02-19T10:06:23;95364.59;;;20.42;26.39
14393;BME280;7281;42.678;23.372;2023-02-19T10:09:24;95359.03;;;20.52;26.54
14393;BME280;7281;42.678;23.372;2023-02-19T10:11:57;95344.72;;;20.79;26.58
14393;BME280;7281;42.678;23.372;2023-02-19T10:14:33;95324.03;;;20.14;26.46
14393;BME280;7281;42.678;23.372;2023-02-19T10:17:03;95335.06;;;20.52;26.27
14393;BME280;7281;42.678;23.372;2023-02-19T10:19:32;95331.84;;;21.11;26.46
14393;BME280;7281;42.678;23.372;2023-02-19T10:22:02;95332.16;;;21.10;25.88
14393;BME280;7281;42.678;23.372;2023-02-19T10:24:29;95334.81;;;21.01;26.03
14393;BME280;7281;42.678;23.372;2023-02-19T10:26:56;95316.66;;;21.21;26.05
14393;BME280;7281;42.678;23.372;2023-02-19T10:29:23;95299.75;;;21.51;25.14
14393;BME280;7281;42.678;23.372;2023-02-19T10:32:20;95317.78;;;21.45;25.60
14393;BME280;7281;42.678;23.372;2023-02-19T10:35:19;95312.13;;;21.30;25.09
14393;BME280;7281;42.678;23.372;2023-02-19T10:37:48;95268.91;;;20.85;25.45
14393;BME280;7281;42.678;23.372;2023-02-19T10:40:19;95283.13;;;21.37;25.62
14393;BME280;7281;42.678;23.372;2023-02-19T10:42:52;95287.03;;;21.39;25.37
14393;BME280;7281;42.678;23.372;2023-02-19T10:45:25;95286.72;;;21.75;25.25
14393;BME280;7281;42.678;23.372;2023-02-19T10:47:53;95274.94;;;21.76;24.20
14393;BME280;7281;42.678;23.372;2023-02-19T10:50:31;95268.34;;;21.99;24.64
14393;BME280;7281;42.678;23.372;2023-02-19T10:52:59;95272.28;;;21.07;25.51
14393;BME280;7281;42.678;23.372;2023-02-19T10:55:33;95261.31;;;21.26;25.02
14393;BME280;7281;42.678;23.372;2023-02-19T10:58:24;95253.94;;;21.91;25.15
14393;BME280;7281;42.678;23.372;2023-02-19T11:03:49;95245.78;;;21.79;25.57
14393;BME280;7281;42.678;23.372;2023-02-19T11:06:19;95243.84;;;21.97;26.22
14393;BME280;7281;42.678;23.372;2023-02-19T11:08:57;95233.78;;;22.11;25.72
14393;BME280;7281;42.678;23.372;2023-02-19T11:11:36;95222.69;;;22.38;24.69
14393;BME280;7281;42.678;23.372;2023-02-19T11:14:13;95225.38;;;21.75;25.17
14393;BME280;7281;42.678;23.372;2023-02-19T11:16:52;95220.66;;;21.89;24.69
14393;BME280;7281;42.678;23.372;2023-02-19T11:25:20;95199.91;;;22.32;23.63
14393;BME280;7281;42.678;23.372;2023-02-19T11:27:57;95194.38;;;22.37;24.27
14393;BME280;7281;42.678;23.372;2023-02-19T11:35:46;95168.25;;;22.51;23.53
14393;BME280;7281;42.678;23.372;2023-02-19T11:38:15;95183.47;;;22.59;24.26
14393;BME280;7281;42.678;23.372;2023-02-19T11:41:09;95163.47;;;23.06;23.65
14393;BME280;7281;42.678;23.372;2023-02-19T11:49:49;95158.91;;;23.48;23.34
14393;BME280;7281;42.678;23.372;2023-02-19T11:57:54;95144.06;;;23.51;22.63
14393;BME280;7281;42.678;23.372;2023-02-19T12:00:28;95137.44;;;23.69;22.48
14393;BME280;7281;42.678;23.372;2023-02-19T12:03:33;95131.22;;;23.77;22.83
14393;BME280;7281;42.678;23.372;2023-02-19T12:06:16;95126.59;;;23.00;22.62
14393;BME280;7281;42.678;23.372;2023-02-19T12:19:33;95095.34;;;24.90;20.62
14393;BME280;7281;42.678;23.372;2023-02-19T12:22:27;95091.53;;;25.19;20.50
14393;BME280;7281;42.678;23.372;2023-02-19T12:25:45;95089.66;;;25.35;19.95
14393;BME280;7281;42.678;23.372;2023-02-19T12:28:32;95067.41;;;25.46;20.04
14393;BME280;7281;42.678;23.372;2023-02-19T12:31:41;95055.66;;;25.82;19.22
14393;BME280;7281;42.678;23.372;2023-02-19T12:50:38;95025.44;;;27.12;18.45
14393;BME280;7281;42.678;23.372;2023-02-19T12:53:27;95030.66;;;25.35;19.02
14393;BME280;7281;42.678;23.372;2023-02-19T12:55:58;95016.00;;;24.73;19.83
14393;BME280;7281;42.678;23.372;2023-02-19T12:58:36;95020.59;;;24.61;20.57
14393;BME280;7281;42.678;23.372;2023-02-19T13:01:06;95013.63;;;25.27;20.17
14393;BME280;7281;42.678;23.372;2023-02-19T13:06:33;94990.59;;;29.02;17.43
14393;BME280;7281;42.678;23.372;2023-02-19T13:09:10;94990.13;;;28.92;16.82
14393;BME280;7281;42.678;23.372;2023-02-19T13:11:44;94985.25;;;29.89;16.20
14393;BME280;7281;42.678;23.372;2023-02-19T13:14:20;94996.34;;;25.56;18.88
14393;BME280;7281;42.678;23.372;2023-02-19T13:16:55;94966.34;;;27.60;17.91
14393;BME280;7281;42.678;23.372;2023-02-19T13:19:23;94975.56;;;28.67;16.76
14393;BME280;7281;42.678;23.372;2023-02-19T13:21:57;94957.22;;;29.57;16.51
14393;BME280;7281;42.678;23.372;2023-02-19T13:24:48;94971.63;;;30.29;16.12
14393;BME280;7281;42.678;23.372;2023-02-19T13:32:47;94959.75;;;28.99;16.50
14393;BME280;7281;42.678;23.372;2023-02-19T13:38:02;94945.84;;;29.81;15.69
14393;BME280;7281;42.678;23.372;2023-02-19T13:40:34;94944.09;;;30.85;15.77
14393;BME280;7281;42.678;23.372;2023-02-19T13:43:05;94937.91;;;30.84;15.00
14393;BME280;7281;42.678;23.372;2023-02-19T13:45:42;94931.81;;;31.61;14.38
14393;BME280;7281;42.678;23.372;2023-02-19T14:04:48;94933.38;;;27.41;17.55
14393;BME280;7281;42.678;23.372;2023-02-19T14:09:45;94929.06;;;26.15;17.96
14393;BME280;7281;42.678;23.372;2023-02-19T14:14:43;94931.72;;;25.80;18.83
14393;BME280;7281;42.678;23.372;2023-02-19T14:25:35;94921.91;;;25.53;18.81
14393;BME280;7281;42.678;23.372;2023-02-19T14:28:13;94906.50;;;25.34;19.19
14393;BME280;7281;42.678;23.372;2023-02-19T14:31:10;94905.38;;;25.20;19.25
14393;BME280;7281;42.678;23.372;2023-02-19T14:33:38;94915.25;;;25.16;19.73
14393;BME280;7281;42.678;23.372;2023-02-19T14:39:21;94908.75;;;25.32;20.42
14393;BME280;7281;42.678;23.372;2023-02-19T14:41:56;94911.84;;;25.19;20.43
14393;BME280;7281;42.678;23.372;2023-02-19T14:44:27;94887.81;;;24.91;21.18
14393;BME280;7281;42.678;23.372;2023-02-19T14:47:03;94888.41;;;24.84;20.89
14393;BME280;7281;42.678;23.372;2023-02-19T14:49:40;94878.88;;;24.71;20.68
14393;BME280;7281;42.678;23.372;2023-02-19T14:52:22;94895.84;;;24.75;20.99
14393;BME280;7281;42.678;23.372;2023-02-19T14:54:56;94894.97;;;24.71;20.87
14393;BME280;7281;42.678;23.372;2023-02-19T14:57:39;94893.75;;;24.69;21.23
14393;BME280;7281;42.678;23.372;2023-02-19T15:00:25;94899.75;;;24.78;21.29
14393;BME280;7281;42.678;23.372;2023-02-19T15:02:54;94907.81;;;24.66;20.89
14393;BME280;7281;42.678;23.372;2023-02-19T15:05:28;94890.66;;;23.99;22.62
14393;BME280;7281;42.678;23.372;2023-02-19T15:08:00;94886.41;;;23.98;21.78
14393;BME280;7281;42.678;23.372;2023-02-19T15:10:29;94883.03;;;23.62;22.44
14393;BME280;7281;42.678;23.372;2023-02-19T15:13:03;94887.50;;;23.70;22.53
14393;BME280;7281;42.678;23.372;2023-02-19T15:15:37;94889.09;;;23.47;22.74
14393;BME280;7281;42.678;23.372;2023-02-19T15:18:06;94887.72;;;23.29;23.07
14393;BME280;7281;42.678;23.372;2023-02-19T15:20:35;94885.75;;;23.38;23.17
14393;BME280;7281;42.678;23.372;2023-02-19T15:23:06;94887.41;;;23.18;23.08
14393;BME280;7281;42.678;23.372;2023-02-19T15:25:37;94893.97;;;23.08;23.16
14393;BME280;7281;42.678;23.372;2023-02-19T15:28:19;94902.91;;;23.25;22.96
14393;BME280;7281;42.678;23.372;2023-02-19T15:30:46;94900.22;;;23.00;23.46
14393;BME280;7281;42.678;23.372;2023-02-19T15:33:18;94896.75;;;22.88;23.53
14393;BME280;7281;42.678;23.372;2023-02-19T15:35:53;94884.94;;;22.89;23.14
14393;BME280;7281;42.678;23.372;2023-02-19T15:38:21;94902.66;;;22.93;23.33